sensor_id;sensor_type;location;lat;lon;timestamp;P1;durP1;ratioP1;P2;durP2;ratioP2
8978;SDS011;4524;51.364;5.448;2023-02-11T00:01:07;16.27;;;9.03;;
8978;SDS011;4524;51.364;5.448;2023-02-11T00:03:36;15.63;;;9.87;;
8978;SDS011;4524;51.364;5.448;2023-02-11T00:06:05;16.33;;;9.53;;
8978;SDS011;4524;51.364;5.448;2023-02-11T00:08:35;17.03;;;10.73;;
8978;SDS011;4524;51.364;5.448;2023-02-11T00:11:03;17.57;;;10.20;;
8978;SDS011;4524;51.364;5.448;2023-02-11T00:13:32;17.63;;;10.63;;
8978;SDS011;4524;51.364;5.448;2023-02-11T00:16:06;18.77;;;9.93;;
8978;SDS011;4524;51.364;5.448;2023-02-11T00:18:34;17.03;;;9.77;;
8978;SDS011;4524;51.364;5.448;2023-02-11T00:21:04;17.63;;;9.40;;
8978;SDS011;4524;51.364;5.448;2023-02-11T00:23:33;18.77;;;10.13;;
8978;SDS011;4524;51.364;5.448;2023-02-11T00:26:01;17.80;;;9.90;;
8978;SDS011;4524;51.364;5.448;2023-02-11T00:28:30;13.80;;;9.33;;
8978;SDS011;4524;51.364;5.448;2023-02-11T00:30:58;18.70;;;9.33;;
8978;SDS011;4524;51.364;5.448;2023-02-11T00:33:29;12.10;;;8.73;;
8978;SDS011;4524;51.364;5.448;2023-02-11T00:35:57;14.67;;;8.80;;
8978;SDS011;4524;51.364;5.448;2023-02-11T00:38:25;12.90;;;8.67;;
8978;SDS011;4524;51.364;5.448;2023-02-11T00:40:53;14.80;;;8.60;;
8978;SDS011;4524;51.364;5.448;2023-02-11T00:43:21;15.83;;;9.07;;
8978;SDS011;4524;51.364;5.448;2023-02-11T00:45:49;17.07;;;9.70;;
8978;SDS011;4524;51.364;5.448;2023-02-11T00:48:17;15.80;;;9.73;;
8978;SDS011;4524;51.364;5.448;2023-02-11T00:50:47;15.43;;;9.30;;
8978;SDS011;4524;51.364;5.448;2023-02-11T00:53:15;15.83;;;8.47;;
8978;SDS011;4524;51.364;5.448;2023-02-11T00:55:42;19.90;;;9.00;;
8978;SDS011;4524;51.364;5.448;2023-02-11T00:58:10;21.30;;;9.40;;
8978;SDS011;4524;51.364;5.448;2023-02-11T01:00:40;17.73;;;9.03;;
8978;SDS011;4524;51.364;5.448;2023-02-11T01:03:08;15.03;;;8.93;;
8978;SDS011;4524;51.364;5.448;2023-02-11T01:05:36;19.73;;;9.23;;
8978;SDS011;4524;51.364;5.448;2023-02-11T01:08:06;16.90;;;9.40;;
8978;SDS011;4524;51.364;5.448;2023-02-11T01:10:34;16.17;;;8.87;;
8978;SDS011;4524;51.364;5.448;2023-02-11T01:13:02;12.67;;;8.70;;
8978;SDS011;4524;51.364;5.448;2023-02-11T01:15:32;14.03;;;9.23;;
8978;SDS011;4524;51.364;5.448;2023-02-11T01:18:00;14.53;;;8.57;;
8978;SDS011;4524;51.364;5.448;2023-02-11T01:20:28;15.20;;;9.30;;
8978;SDS011;4524;51.364;5.448;2023-02-11T01:22:56;14.97;;;9.33;;
8978;SDS011;4524;51.364;5.448;2023-02-11T01:25:25;14.03;;;8.93;;
8978;SDS011;4524;51.364;5.448;2023-02-11T01:27:53;15.93;;;9.00;;
8978;SDS011;4524;51.364;5.448;2023-02-11T01:30:21;15.50;;;9.57;;
8978;SDS011;4524;51.364;5.448;2023-02-11T01:32:49;15.73;;;8.23;;
8978;SDS011;4524;51.364;5.448;2023-02-11T01:35:17;14.23;;;8.20;;
8978;SDS011;4524;51.364;5.448;2023-02-11T01:37:45;15.77;;;9.30;;
8978;SDS011;4524;51.364;5.448;2023-02-11T01:40:14;14.67;;;8.93;;
8978;SDS011;4524;51.364;5.448;2023-02-11T01:42:44;15.07;;;8.43;;
8978;SDS011;4524;51.364;5.448;2023-02-11T01:48:20;13.23;;;8.33;;
8978;SDS011;4524;51.364;5.448;2023-02-11T01:50:51;13.63;;;8.23;;
8978;SDS011;4524;51.364;5.448;2023-02-11T01:53:25;13.50;;;7.73;;
8978;SDS011;4524;51.364;5.448;2023-02-11T01:56:12;13.67;;;8.73;;
8978;SDS011;4524;51.364;5.448;2023-02-11T01:59:01;13.17;;;8.27;;
8978;SDS011;4524;51.364;5.448;2023-02-11T02:01:34;12.43;;;9.23;;
8978;SDS011;4524;51.364;5.448;2023-02-11T02:04:05;15.40;;;7.90;;
8978;SDS011;4524;51.364;5.448;2023-02-11T02:06:36;15.43;;;7.90;;
8978;SDS011;4524;51.364;5.448;2023-02-11T02:09:10;13.10;;;7.67;;
8978;SDS011;4524;51.364;5.448;2023-02-11T02:11:45;17.80;;;8.27;;
8978;SDS011;4524;51.364;5.448;2023-02-11T02:14:15;12.07;;;7.50;;
8978;SDS011;4524;51.364;5.448;2023-02-11T02:16:44;14.97;;;7.23;;
8978;SDS011;4524;51.364;5.448;2023-02-11T02:19:36;17.77;;;7.67;;
8978;SDS011;4524;51.364;5.448;2023-02-11T02:22:37;13.87;;;7.27;;
8978;SDS011;4524;51.364;5.448;2023-02-11T02:25:36;11.30;;;6.90;;
8978;SDS011;4524;51.364;5.448;2023-02-11T02:28:22;11.57;;;7.63;;
8978;SDS011;4524;51.364;5.448;2023-02-11T02:31:12;12.17;;;6.70;;
8978;SDS011;4524;51.364;5.448;2023-02-11T02:33:53;13.30;;;7.17;;
8978;SDS011;4524;51.364;5.448;2023-02-11T02:36:27;16.63;;;7.53;;
8978;SDS011;4524;51.364;5.448;2023-02-11T02:39:02;13.03;;;6.63;;
8978;SDS011;4524;51.364;5.448;2023-02-11T02:41:34;17.50;;;7.60;;
8978;SDS011;4524;51.364;5.448;2023-02-11T02:44:05;16.40;;;7.70;;
8978;SDS011;4524;51.364;5.448;2023-02-11T02:46:34;11.27;;;6.27;;
8978;SDS011;4524;51.364;5.448;2023-02-11T02:49:08;15.67;;;7.43;;
8978;SDS011;4524;51.364;5.448;2023-02-11T02:55:00;14.07;;;7.27;;
8978;SDS011;4524;51.364;5.448;2023-02-11T02:57:41;13.57;;;6.70;;
8978;SDS011;4524;51.364;5.448;2023-02-11T03:00:29;12.90;;;6.70;;
8978;SDS011;4524;51.364;5.448;2023-02-11T03:03:06;11.80;;;7.17;;
8978;SDS011;4524;51.364;5.448;2023-02-11T03:05:47;10.93;;;6.67;;
8978;SDS011;4524;51.364;5.448;2023-02-11T03:08:23;12.77;;;6.83;;
8978;SDS011;4524;51.364;5.448;2023-02-11T03:10:55;13.40;;;6.43;;
8978;SDS011;4524;51.364;5.448;2023-02-11T03:13:26;11.30;;;6.83;;
8978;SDS011;4524;51.364;5.448;2023-02-11T03:15:59;11.47;;;6.70;;
8978;SDS011;4524;51.364;5.448;2023-02-11T03:18:34;14.43;;;6.97;;
8978;SDS011;4524;51.364;5.448;2023-02-11T03:21:06;12.67;;;7.10;;
8978;SDS011;4524;51.364;5.448;2023-02-11T03:23:36;14.60;;;6.53;;
8978;SDS011;4524;51.364;5.448;2023-02-11T03:26:09;13.03;;;7.07;;
8978;SDS011;4524;51.364;5.448;2023-02-11T03:28:43;14.23;;;7.53;;
8978;SDS011;4524;51.364;5.448;2023-02-11T03:31:19;16.30;;;7.00;;
8978;SDS011;4524;51.364;5.448;2023-02-11T03:33:55;11.03;;;6.30;;
8978;SDS011;4524;51.364;5.448;2023-02-11T03:36:38;15.20;;;7.00;;
8978;SDS011;4524;51.364;5.448;2023-02-11T03:39:11;16.43;;;7.00;;
8978;SDS011;4524;51.364;5.448;2023-02-11T03:41:42;11.03;;;6.50;;
8978;SDS011;4524;51.364;5.448;2023-02-11T03:44:12;11.80;;;6.33;;
8978;SDS011;4524;51.364;5.448;2023-02-11T03:46:43;11.60;;;7.30;;
8978;SDS011;4524;51.364;5.448;2023-02-11T03:49:17;10.83;;;7.33;;
8978;SDS011;4524;51.364;5.448;2023-02-11T03:51:49;9.33;;;6.77;;
8978;SDS011;4524;51.364;5.448;2023-02-11T03:54:20;15.00;;;8.00;;
8978;SDS011;4524;51.364;5.448;2023-02-11T03:56:54;14.17;;;7.00;;
8978;SDS011;4524;51.364;5.448;2023-02-11T03:59:24;13.57;;;7.40;;
8978;SDS011;4524;51.364;5.448;2023-02-11T04:01:52;14.67;;;7.00;;
8978;SDS011;4524;51.364;5.448;2023-02-11T04:04:20;13.73;;;7.40;;
8978;SDS011;4524;51.364;5.448;2023-02-11T04:06:49;14.60;;;6.67;;
8978;SDS011;4524;51.364;5.448;2023-02-11T04:09:17;11.87;;;6.70;;
8978;SDS011;4524;51.364;5.448;2023-02-11T04:11:45;17.03;;;7.97;;
8978;SDS011;4524;51.364;5.448;2023-02-11T04:14:13;11.27;;;6.73;;
8978;SDS011;4524;51.364;5.448;2023-02-11T04:16:41;12.57;;;7.13;;
8978;SDS011;4524;51.364;5.448;2023-02-11T04:19:09;15.33;;;7.53;;
8978;SDS011;4524;51.364;5.448;2023-02-11T04:21:37;12.87;;;7.53;;
8978;SDS011;4524;51.364;5.448;2023-02-11T04:24:06;13.47;;;7.33;;
8978;SDS011;4524;51.364;5.448;2023-02-11T04:26:34;11.60;;;6.83;;
8978;SDS011;4524;51.364;5.448;2023-02-11T04:29:02;15.77;;;7.47;;
8978;SDS011;4524;51.364;5.448;2023-02-11T04:31:30;11.03;;;7.80;;
8978;SDS011;4524;51.364;5.448;2023-02-11T04:33:58;13.50;;;7.20;;
8978;SDS011;4524;51.364;5.448;2023-02-11T04:36:26;13.47;;;7.73;;
8978;SDS011;4524;51.364;5.448;2023-02-11T04:38:54;16.67;;;7.70;;
8978;SDS011;4524;51.364;5.448;2023-02-11T04:41:24;12.33;;;7.80;;
8978;SDS011;4524;51.364;5.448;2023-02-11T04:43:51;12.43;;;7.80;;
8978;SDS011;4524;51.364;5.448;2023-02-11T04:46:19;13.00;;;7.50;;
8978;SDS011;4524;51.364;5.448;2023-02-11T04:48:48;15.20;;;8.70;;
8978;SDS011;4524;51.364;5.448;2023-02-11T04:51:16;16.07;;;8.03;;
8978;SDS011;4524;51.364;5.448;2023-02-11T04:53:44;12.00;;;7.73;;
8978;SDS011;4524;51.364;5.448;2023-02-11T04:56:12;16.20;;;7.80;;
8978;SDS011;4524;51.364;5.448;2023-02-11T04:58:41;11.73;;;7.53;;
8978;SDS011;4524;51.364;5.448;2023-02-11T05:01:10;14.53;;;7.83;;
8978;SDS011;4524;51.364;5.448;2023-02-11T05:03:39;14.60;;;8.60;;
8978;SDS011;4524;51.364;5.448;2023-02-11T05:06:08;17.83;;;8.90;;
8978;SDS011;4524;51.364;5.448;2023-02-11T05:08:37;16.67;;;8.20;;
8978;SDS011;4524;51.364;5.448;2023-02-11T05:11:06;13.67;;;8.33;;
8978;SDS011;4524;51.364;5.448;2023-02-11T05:13:34;17.57;;;8.47;;
8978;SDS011;4524;51.364;5.448;2023-02-11T05:16:04;15.70;;;8.33;;
8978;SDS011;4524;51.364;5.448;2023-02-11T05:18:32;17.03;;;8.33;;
8978;SDS011;4524;51.364;5.448;2023-02-11T05:21:04;14.80;;;8.07;;
8978;SDS011;4524;51.364;5.448;2023-02-11T05:23:32;17.97;;;8.63;;
8978;SDS011;4524;51.364;5.448;2023-02-11T05:26:02;19.85;;;10.40;;
8978;SDS011;4524;51.364;5.448;2023-02-11T05:28:30;13.00;;;8.50;;
8978;SDS011;4524;51.364;5.448;2023-02-11T05:30:59;15.27;;;8.47;;
8978;SDS011;4524;51.364;5.448;2023-02-11T05:33:28;18.13;;;10.07;;
8978;SDS011;4524;51.364;5.448;2023-02-11T05:35:57;13.50;;;8.63;;
8978;SDS011;4524;51.364;5.448;2023-02-11T05:38:25;18.50;;;9.47;;
8978;SDS011;4524;51.364;5.448;2023-02-11T05:40:54;18.00;;;9.30;;
8978;SDS011;4524;51.364;5.448;2023-02-11T05:43:22;15.47;;;9.30;;
8978;SDS011;4524;51.364;5.448;2023-02-11T05:45:50;18.60;;;9.23;;
8978;SDS011;4524;51.364;5.448;2023-02-11T05:48:18;16.50;;;9.63;;
8978;SDS011;4524;51.364;5.448;2023-02-11T05:50:48;15.13;;;9.10;;
8978;SDS011;4524;51.364;5.448;2023-02-11T05:53:16;17.83;;;10.03;;
8978;SDS011;4524;51.364;5.448;2023-02-11T05:55:44;19.57;;;9.47;;
8978;SDS011;4524;51.364;5.448;2023-02-11T05:58:12;17.50;;;9.27;;
8978;SDS011;4524;51.364;5.448;2023-02-11T06:00:40;17.20;;;9.47;;
8978;SDS011;4524;51.364;5.448;2023-02-11T06:03:08;18.97;;;10.07;;
8978;SDS011;4524;51.364;5.448;2023-02-11T06:05:36;23.30;;;10.60;;
8978;SDS011;4524;51.364;5.448;2023-02-11T06:08:05;17.40;;;9.67;;
8978;SDS011;4524;51.364;5.448;2023-02-11T06:10:33;19.03;;;10.23;;
8978;SDS011;4524;51.364;5.448;2023-02-11T06:13:01;17.07;;;9.57;;
8978;SDS011;4524;51.364;5.448;2023-02-11T06:15:29;23.60;;;10.93;;
8978;SDS011;4524;51.364;5.448;2023-02-11T06:17:57;17.67;;;9.80;;
8978;SDS011;4524;51.364;5.448;2023-02-11T06:20:25;16.83;;;10.10;;
8978;SDS011;4524;51.364;5.448;2023-02-11T06:22:53;15.80;;;9.53;;
8978;SDS011;4524;51.364;5.448;2023-02-11T06:25:23;14.47;;;9.73;;
8978;SDS011;4524;51.364;5.448;2023-02-11T06:27:51;17.80;;;10.63;;
8978;SDS011;4524;51.364;5.448;2023-02-11T06:30:19;20.53;;;11.43;;
8978;SDS011;4524;51.364;5.448;2023-02-11T06:32:47;19.03;;;10.80;;
8978;SDS011;4524;51.364;5.448;2023-02-11T06:35:15;18.47;;;11.07;;
8978;SDS011;4524;51.364;5.448;2023-02-11T06:37:43;18.83;;;11.07;;
8978;SDS011;4524;51.364;5.448;2023-02-11T06:40:12;17.03;;;10.17;;
8978;SDS011;4524;51.364;5.448;2023-02-11T06:42:42;19.03;;;11.00;;
8978;SDS011;4524;51.364;5.448;2023-02-11T06:45:10;17.80;;;11.00;;
8978;SDS011;4524;51.364;5.448;2023-02-11T06:47:39;18.97;;;10.80;;
8978;SDS011;4524;51.364;5.448;2023-02-11T06:50:09;19.80;;;10.17;;
8978;SDS011;4524;51.364;5.448;2023-02-11T06:52:39;21.73;;;11.20;;
8978;SDS011;4524;51.364;5.448;2023-02-11T06:55:07;20.67;;;11.10;;
8978;SDS011;4524;51.364;5.448;2023-02-11T06:57:35;22.87;;;12.20;;
8978;SDS011;4524;51.364;5.448;2023-02-11T07:00:05;19.67;;;12.17;;
8978;SDS011;4524;51.364;5.448;2023-02-11T07:02:34;23.50;;;12.80;;
8978;SDS011;4524;51.364;5.448;2023-02-11T07:05:04;19.97;;;12.73;;
8978;SDS011;4524;51.364;5.448;2023-02-11T07:07:32;26.10;;;12.27;;
8978;SDS011;4524;51.364;5.448;2023-02-11T07:10:00;24.10;;;12.73;;
8978;SDS011;4524;51.364;5.448;2023-02-11T07:12:29;23.17;;;13.50;;
8978;SDS011;4524;51.364;5.448;2023-02-11T07:14:57;25.93;;;13.87;;
8978;SDS011;4524;51.364;5.448;2023-02-11T07:17:26;23.70;;;13.10;;
8978;SDS011;4524;51.364;5.448;2023-02-11T07:19:54;28.50;;;16.23;;
8978;SDS011;4524;51.364;5.448;2023-02-11T07:22:22;23.93;;;13.97;;
8978;SDS011;4524;51.364;5.448;2023-02-11T07:24:50;26.23;;;14.83;;
8978;SDS011;4524;51.364;5.448;2023-02-11T07:27:18;23.77;;;14.37;;
8978;SDS011;4524;51.364;5.448;2023-02-11T07:29:46;32.90;;;16.23;;
8978;SDS011;4524;51.364;5.448;2023-02-11T07:32:14;28.63;;;16.70;;
8978;SDS011;4524;51.364;5.448;2023-02-11T07:34:43;26.20;;;15.90;;
8978;SDS011;4524;51.364;5.448;2023-02-11T07:37:13;33.77;;;17.37;;
8978;SDS011;4524;51.364;5.448;2023-02-11T07:39:41;32.93;;;16.17;;
8978;SDS011;4524;51.364;5.448;2023-02-11T07:42:09;30.50;;;17.07;;
8978;SDS011;4524;51.364;5.448;2023-02-11T07:44:37;31.50;;;16.80;;
8978;SDS011;4524;51.364;5.448;2023-02-11T07:47:05;33.30;;;18.47;;
8978;SDS011;4524;51.364;5.448;2023-02-11T07:49:33;34.93;;;19.43;;
8978;SDS011;4524;51.364;5.448;2023-02-11T07:52:02;31.97;;;18.57;;
8978;SDS011;4524;51.364;5.448;2023-02-11T07:54:30;38.23;;;19.67;;
8978;SDS011;4524;51.364;5.448;2023-02-11T07:56:58;35.30;;;18.73;;
8978;SDS011;4524;51.364;5.448;2023-02-11T07:59:26;36.90;;;19.93;;
8978;SDS011;4524;51.364;5.448;2023-02-11T08:01:54;32.47;;;19.27;;
8978;SDS011;4524;51.364;5.448;2023-02-11T08:04:22;41.23;;;22.00;;
8978;SDS011;4524;51.364;5.448;2023-02-11T08:06:50;42.77;;;21.50;;
8978;SDS011;4524;51.364;5.448;2023-02-11T08:09:23;41.43;;;21.97;;
8978;SDS011;4524;51.364;5.448;2023-02-11T08:11:51;37.10;;;20.90;;
8978;SDS011;4524;51.364;5.448;2023-02-11T08:14:19;48.37;;;23.97;;
8978;SDS011;4524;51.364;5.448;2023-02-11T08:16:47;41.77;;;23.73;;
8978;SDS011;4524;51.364;5.448;2023-02-11T08:19:16;39.73;;;22.07;;
8978;SDS011;4524;51.364;5.448;2023-02-11T08:21:44;39.47;;;22.57;;
8978;SDS011;4524;51.364;5.448;2023-02-11T08:24:15;42.03;;;21.93;;
8978;SDS011;4524;51.364;5.448;2023-02-11T08:26:44;42.17;;;23.33;;
8978;SDS011;4524;51.364;5.448;2023-02-11T08:29:12;45.47;;;23.70;;
8978;SDS011;4524;51.364;5.448;2023-02-11T08:31:43;43.97;;;23.47;;
8978;SDS011;4524;51.364;5.448;2023-02-11T08:34:12;41.50;;;23.40;;
8978;SDS011;4524;51.364;5.448;2023-02-11T08:36:44;41.43;;;23.27;;
8978;SDS011;4524;51.364;5.448;2023-02-11T08:39:13;48.20;;;23.47;;
8978;SDS011;4524;51.364;5.448;2023-02-11T08:41:47;45.80;;;24.23;;
8978;SDS011;4524;51.364;5.448;2023-02-11T08:44:17;47.63;;;25.27;;
8978;SDS011;4524;51.364;5.448;2023-02-11T08:46:46;38.73;;;22.30;;
8978;SDS011;4524;51.364;5.448;2023-02-11T08:49:14;43.00;;;23.43;;
8978;SDS011;4524;51.364;5.448;2023-02-11T08:51:43;46.13;;;24.83;;
8978;SDS011;4524;51.364;5.448;2023-02-11T08:54:11;46.00;;;24.17;;
8978;SDS011;4524;51.364;5.448;2023-02-11T08:56:39;47.87;;;25.03;;
8978;SDS011;4524;51.364;5.448;2023-02-11T08:59:10;44.63;;;23.83;;
8978;SDS011;4524;51.364;5.448;2023-02-11T09:01:40;43.23;;;23.77;;
8978;SDS011;4524;51.364;5.448;2023-02-11T09:04:09;47.95;;;28.05;;
8978;SDS011;4524;51.364;5.448;2023-02-11T09:06:37;47.63;;;25.77;;
8978;SDS011;4524;51.364;5.448;2023-02-11T09:09:08;46.57;;;25.13;;
8978;SDS011;4524;51.364;5.448;2023-02-11T09:11:39;47.33;;;25.10;;
8978;SDS011;4524;51.364;5.448;2023-02-11T09:14:11;51.37;;;26.57;;
8978;SDS011;4524;51.364;5.448;2023-02-11T09:16:44;48.20;;;26.37;;
8978;SDS011;4524;51.364;5.448;2023-02-11T09:19:12;48.50;;;26.80;;
8978;SDS011;4524;51.364;5.448;2023-02-11T09:21:40;50.97;;;26.07;;
8978;SDS011;4524;51.364;5.448;2023-02-11T09:24:09;50.10;;;26.90;;
8978;SDS011;4524;51.364;5.448;2023-02-11T09:26:38;43.43;;;24.30;;
8978;SDS011;4524;51.364;5.448;2023-02-11T09:29:07;46.27;;;25.23;;
8978;SDS011;4524;51.364;5.448;2023-02-11T09:31:37;53.27;;;27.13;;
8978;SDS011;4524;51.364;5.448;2023-02-11T09:34:05;53.00;;;27.47;;
8978;SDS011;4524;51.364;5.448;2023-02-11T09:36:34;46.57;;;26.37;;
8978;SDS011;4524;51.364;5.448;2023-02-11T09:39:04;55.13;;;26.77;;
8978;SDS011;4524;51.364;5.448;2023-02-11T09:44:41;44.70;;;24.83;;
8978;SDS011;4524;51.364;5.448;2023-02-11T09:47:18;49.40;;;26.80;;
8978;SDS011;4524;51.364;5.448;2023-02-11T09:49:54;49.43;;;27.07;;
8978;SDS011;4524;51.364;5.448;2023-02-11T09:52:29;51.53;;;28.77;;
8978;SDS011;4524;51.364;5.448;2023-02-11T09:55:02;53.40;;;27.70;;
8978;SDS011;4524;51.364;5.448;2023-02-11T09:57:37;50.47;;;26.73;;
8978;SDS011;4524;51.364;5.448;2023-02-11T10:00:11;48.07;;;26.33;;
8978;SDS011;4524;51.364;5.448;2023-02-11T10:02:50;58.67;;;29.13;;
8978;SDS011;4524;51.364;5.448;2023-02-11T10:05:42;52.47;;;26.50;;
8978;SDS011;4524;51.364;5.448;2023-02-11T10:08:27;60.80;;;29.17;;
8978;SDS011;4524;51.364;5.448;2023-02-11T10:11:02;57.43;;;29.40;;
8978;SDS011;4524;51.364;5.448;2023-02-11T10:13:44;53.67;;;29.60;;
8978;SDS011;4524;51.364;5.448;2023-02-11T10:16:23;53.60;;;29.77;;
8978;SDS011;4524;51.364;5.448;2023-02-11T10:19:14;56.83;;;29.67;;
8978;SDS011;4524;51.364;5.448;2023-02-11T10:21:53;55.37;;;30.97;;
8978;SDS011;4524;51.364;5.448;2023-02-11T10:24:30;53.97;;;29.57;;
8978;SDS011;4524;51.364;5.448;2023-02-11T10:26:58;63.37;;;30.13;;
8978;SDS011;4524;51.364;5.448;2023-02-11T10:29:30;56.67;;;27.87;;
8978;SDS011;4524;51.364;5.448;2023-02-11T10:32:03;54.33;;;28.87;;
8978;SDS011;4524;51.364;5.448;2023-02-11T10:34:43;55.50;;;30.30;;
8978;SDS011;4524;51.364;5.448;2023-02-11T10:37:11;60.97;;;30.80;;
8978;SDS011;4524;51.364;5.448;2023-02-11T10:39:40;59.43;;;29.37;;
8978;SDS011;4524;51.364;5.448;2023-02-11T10:42:09;58.70;;;30.37;;
8978;SDS011;4524;51.364;5.448;2023-02-11T10:44:40;55.07;;;29.63;;
8978;SDS011;4524;51.364;5.448;2023-02-11T10:47:17;52.43;;;29.67;;
8978;SDS011;4524;51.364;5.448;2023-02-11T10:49:48;55.03;;;29.90;;
8978;SDS011;4524;51.364;5.448;2023-02-11T10:52:18;58.47;;;29.70;;
8978;SDS011;4524;51.364;5.448;2023-02-11T10:54:59;57.20;;;30.33;;
8978;SDS011;4524;51.364;5.448;2023-02-11T10:57:30;56.27;;;29.23;;
8978;SDS011;4524;51.364;5.448;2023-02-11T11:00:04;54.40;;;30.20;;
8978;SDS011;4524;51.364;5.448;2023-02-11T11:02:50;53.23;;;28.27;;
8978;SDS011;4524;51.364;5.448;2023-02-11T11:05:25;63.80;;;30.43;;
8978;SDS011;4524;51.364;5.448;2023-02-11T11:07:57;53.83;;;29.10;;
8978;SDS011;4524;51.364;5.448;2023-02-11T11:10:28;59.97;;;31.23;;
8978;SDS011;4524;51.364;5.448;2023-02-11T11:13:28;58.07;;;30.77;;
8978;SDS011;4524;51.364;5.448;2023-02-11T11:16:05;49.93;;;29.23;;
8978;SDS011;4524;51.364;5.448;2023-02-11T11:18:45;56.37;;;30.47;;
8978;SDS011;4524;51.364;5.448;2023-02-11T11:21:17;57.40;;;31.20;;
8978;SDS011;4524;51.364;5.448;2023-02-11T11:23:48;59.13;;;30.83;;
8978;SDS011;4524;51.364;5.448;2023-02-11T11:26:18;54.50;;;31.07;;
8978;SDS011;4524;51.364;5.448;2023-02-11T11:28:51;57.87;;;32.43;;
8978;SDS011;4524;51.364;5.448;2023-02-11T11:31:23;54.03;;;31.43;;
8978;SDS011;4524;51.364;5.448;2023-02-11T11:33:54;48.17;;;29.63;;
8978;SDS011;4524;51.364;5.448;2023-02-11T11:36:30;53.27;;;30.87;;
8978;SDS011;4524;51.364;5.448;2023-02-11T11:39:02;57.63;;;31.33;;
8978;SDS011;4524;51.364;5.448;2023-02-11T11:41:51;51.43;;;29.73;;
8978;SDS011;4524;51.364;5.448;2023-02-11T11:44:25;54.50;;;30.43;;
8978;SDS011;4524;51.364;5.448;2023-02-11T11:47:14;48.87;;;28.10;;
8978;SDS011;4524;51.364;5.448;2023-02-11T11:49:50;57.57;;;30.53;;
8978;SDS011;4524;51.364;5.448;2023-02-11T11:52:34;55.17;;;30.63;;
8978;SDS011;4524;51.364;5.448;2023-02-11T11:55:08;56.73;;;31.00;;
8978;SDS011;4524;51.364;5.448;2023-02-11T11:57:41;49.77;;;29.30;;
8978;SDS011;4524;51.364;5.448;2023-02-11T12:00:14;53.07;;;30.80;;
8978;SDS011;4524;51.364;5.448;2023-02-11T12:05:48;52.80;;;29.47;;
8978;SDS011;4524;51.364;5.448;2023-02-11T12:08:27;48.67;;;30.30;;
8978;SDS011;4524;51.364;5.448;2023-02-11T12:11:06;51.90;;;29.93;;
8978;SDS011;4524;51.364;5.448;2023-02-11T12:13:46;53.70;;;29.83;;
8978;SDS011;4524;51.364;5.448;2023-02-11T12:16:26;51.33;;;30.70;;
8978;SDS011;4524;51.364;5.448;2023-02-11T12:22:20;53.60;;;29.47;;
8978;SDS011;4524;51.364;5.448;2023-02-11T12:24:58;52.97;;;29.70;;
8978;SDS011;4524;51.364;5.448;2023-02-11T12:27:44;52.27;;;31.33;;
8978;SDS011;4524;51.364;5.448;2023-02-11T12:30:19;55.83;;;31.70;;
8978;SDS011;4524;51.364;5.448;2023-02-11T12:33:02;53.70;;;30.23;;
8978;SDS011;4524;51.364;5.448;2023-02-11T12:35:40;50.73;;;29.87;;
8978;SDS011;4524;51.364;5.448;2023-02-11T12:38:25;56.60;;;31.13;;
8978;SDS011;4524;51.364;5.448;2023-02-11T12:41:06;47.47;;;30.23;;
8978;SDS011;4524;51.364;5.448;2023-02-11T12:44:11;50.90;;;30.50;;
8978;SDS011;4524;51.364;5.448;2023-02-11T12:46:52;51.27;;;31.60;;
8978;SDS011;4524;51.364;5.448;2023-02-11T12:49:35;52.77;;;32.17;;
8978;SDS011;4524;51.364;5.448;2023-02-11T12:52:18;52.30;;;30.43;;
8978;SDS011;4524;51.364;5.448;2023-02-11T12:54:59;53.07;;;31.53;;
8978;SDS011;4524;51.364;5.448;2023-02-11T12:57:33;51.87;;;32.47;;
8978;SDS011;4524;51.364;5.448;2023-02-11T13:00:05;50.27;;;31.03;;
8978;SDS011;4524;51.364;5.448;2023-02-11T13:02:43;51.70;;;31.37;;
8978;SDS011;4524;51.364;5.448;2023-02-11T13:05:21;52.00;;;32.03;;
8978;SDS011;4524;51.364;5.448;2023-02-11T13:07:54;56.30;;;32.83;;
8978;SDS011;4524;51.364;5.448;2023-02-11T13:10:29;53.93;;;32.87;;
8978;SDS011;4524;51.364;5.448;2023-02-11T13:13:02;54.20;;;32.17;;
8978;SDS011;4524;51.364;5.448;2023-02-11T13:15:45;55.20;;;32.10;;
8978;SDS011;4524;51.364;5.448;2023-02-11T13:18:34;55.40;;;32.50;;
8978;SDS011;4524;51.364;5.448;2023-02-11T13:21:21;54.80;;;32.37;;
8978;SDS011;4524;51.364;5.448;2023-02-11T13:23:59;50.23;;;31.83;;
8978;SDS011;4524;51.364;5.448;2023-02-11T13:26:37;54.37;;;32.73;;
8978;SDS011;4524;51.364;5.448;2023-02-11T13:29:14;53.87;;;32.07;;
8978;SDS011;4524;51.364;5.448;2023-02-11T13:32:05;57.63;;;32.67;;
8978;SDS011;4524;51.364;5.448;2023-02-11T13:34:52;53.93;;;31.33;;
8978;SDS011;4524;51.364;5.448;2023-02-11T13:37:22;50.73;;;31.17;;
8978;SDS011;4524;51.364;5.448;2023-02-11T13:39:56;54.33;;;32.07;;
8978;SDS011;4524;51.364;5.448;2023-02-11T13:42:26;51.13;;;31.27;;
8978;SDS011;4524;51.364;5.448;2023-02-11T13:44:56;51.97;;;31.67;;
8978;SDS011;4524;51.364;5.448;2023-02-11T13:47:25;49.13;;;31.07;;
8978;SDS011;4524;51.364;5.448;2023-02-11T13:49:56;50.33;;;31.53;;
8978;SDS011;4524;51.364;5.448;2023-02-11T13:52:26;53.27;;;31.47;;
8978;SDS011;4524;51.364;5.448;2023-02-11T13:54:58;46.83;;;31.40;;
8978;SDS011;4524;51.364;5.448;2023-02-11T13:57:35;52.87;;;31.90;;
8978;SDS011;4524;51.364;5.448;2023-02-11T14:13:22;48.30;;;31.80;;
8978;SDS011;4524;51.364;5.448;2023-02-11T14:16:02;44.63;;;29.77;;
8978;SDS011;4524;51.364;5.448;2023-02-11T14:18:35;49.53;;;31.50;;
8978;SDS011;4524;51.364;5.448;2023-02-11T14:21:18;47.03;;;30.87;;
8978;SDS011;4524;51.364;5.448;2023-02-11T14:23:50;56.30;;;31.00;;
8978;SDS011;4524;51.364;5.448;2023-02-11T14:26:24;44.07;;;30.50;;
8978;SDS011;4524;51.364;5.448;2023-02-11T14:29:02;48.17;;;32.17;;
8978;SDS011;4524;51.364;5.448;2023-02-11T14:31:40;49.17;;;32.43;;
8978;SDS011;4524;51.364;5.448;2023-02-11T14:34:17;47.07;;;31.30;;
8978;SDS011;4524;51.364;5.448;2023-02-11T14:37:12;45.37;;;31.80;;
8978;SDS011;4524;51.364;5.448;2023-02-11T14:39:51;47.37;;;32.53;;
8978;SDS011;4524;51.364;5.448;2023-02-11T14:42:31;46.80;;;32.23;;
8978;SDS011;4524;51.364;5.448;2023-02-11T14:45:02;50.47;;;32.07;;
8978;SDS011;4524;51.364;5.448;2023-02-11T14:47:33;43.87;;;30.40;;
8978;SDS011;4524;51.364;5.448;2023-02-11T14:50:10;44.63;;;31.50;;
8978;SDS011;4524;51.364;5.448;2023-02-11T14:52:43;43.60;;;29.57;;
8978;SDS011;4524;51.364;5.448;2023-02-11T14:55:15;49.57;;;32.10;;
8978;SDS011;4524;51.364;5.448;2023-02-11T14:58:04;47.23;;;31.93;;
8978;SDS011;4524;51.364;5.448;2023-02-11T15:00:46;47.43;;;32.17;;
8978;SDS011;4524;51.364;5.448;2023-02-11T15:03:29;45.00;;;30.37;;
8978;SDS011;4524;51.364;5.448;2023-02-11T15:06:03;42.60;;;29.53;;
8978;SDS011;4524;51.364;5.448;2023-02-11T15:08:33;46.23;;;30.20;;
8978;SDS011;4524;51.364;5.448;2023-02-11T15:11:08;43.93;;;30.93;;
8978;SDS011;4524;51.364;5.448;2023-02-11T15:13:38;43.37;;;30.70;;
8978;SDS011;4524;51.364;5.448;2023-02-11T15:16:12;45.77;;;31.67;;
8978;SDS011;4524;51.364;5.448;2023-02-11T15:18:44;42.70;;;29.87;;
8978;SDS011;4524;51.364;5.448;2023-02-11T15:21:18;45.17;;;30.77;;
8978;SDS011;4524;51.364;5.448;2023-02-11T15:23:53;42.93;;;30.37;;
8978;SDS011;4524;51.364;5.448;2023-02-11T15:26:24;45.43;;;30.50;;
8978;SDS011;4524;51.364;5.448;2023-02-11T15:28:52;45.37;;;30.30;;
8978;SDS011;4524;51.364;5.448;2023-02-11T15:31:22;45.60;;;30.47;;
8978;SDS011;4524;51.364;5.448;2023-02-11T15:33:51;46.13;;;31.83;;
8978;SDS011;4524;51.364;5.448;2023-02-11T15:36:21;47.20;;;31.30;;
8978;SDS011;4524;51.364;5.448;2023-02-11T15:41:45;43.13;;;29.47;;
8978;SDS011;4524;51.364;5.448;2023-02-11T15:44:26;42.93;;;30.87;;
8978;SDS011;4524;51.364;5.448;2023-02-11T15:46:56;41.63;;;28.73;;
8978;SDS011;4524;51.364;5.448;2023-02-11T15:49:24;41.07;;;28.37;;
8978;SDS011;4524;51.364;5.448;2023-02-11T15:51:55;41.70;;;28.47;;
8978;SDS011;4524;51.364;5.448;2023-02-11T15:54:25;42.93;;;28.70;;
8978;SDS011;4524;51.364;5.448;2023-02-11T15:57:00;41.47;;;29.07;;